createdAt,value
2019-04-04T00:00:50.158Z,98.40
2019-04-04T00:03:21.180Z,98.40
2019-04-04T00:05:50.117Z,98.20
2019-04-04T00:08:20.154Z,97.90
2019-04-04T00:10:48.962Z,97.50
2019-04-04T00:13:17.378Z,97.30
2019-04-04T00:15:46.080Z,97.10
2019-04-04T00:18:14.620Z,96.90
2019-04-04T00:20:43.885Z,97.00
2019-04-04T00:23:12.309Z,97.30
2019-04-04T00:25:40.929Z,97.40
2019-04-04T00:28:14.898Z,97.50
2019-04-04T00:30:43.602Z,97.60
2019-04-04T00:33:13.685Z,98.00
2019-04-04T00:35:43.751Z,98.00
2019-04-04T00:38:12.166Z,98.20
2019-04-04T00:40:41.983Z,98.50
2019-04-04T00:43:13.371Z,98.50
2019-04-04T00:45:41.798Z,98.30
2019-04-04T00:48:10.206Z,98.20
2019-04-04T00:50:40.157Z,98.30
2019-04-04T00:53:09.906Z,98.20
2019-04-04T00:55:38.777Z,98.50
2019-04-04T00:58:08.938Z,98.60
2019-04-04T01:00:37.535Z,98.90
2019-04-04T01:03:06.053Z,98.90
2019-04-04T01:05:34.451Z,98.80
2019-04-04T01:08:02.881Z,98.80
2019-04-04T01:10:31.283Z,98.80
2019-04-04T01:12:59.741Z,98.60
2019-04-04T01:15:29.048Z,98.90
2019-04-04T01:17:58.365Z,98.50
2019-04-04T01:20:26.773Z,98.10
2019-04-04T01:22:56.156Z,97.90
2019-04-04T01:25:25.266Z,97.90
2019-04-04T01:27:53.701Z,97.90
2019-04-04T01:30:22.133Z,97.70
2019-04-04T01:32:50.573Z,97.80
2019-04-04T01:35:18.990Z,97.90
2019-04-04T01:37:47.437Z,97.60
2019-04-04T01:40:16.015Z,97.70
2019-04-04T01:42:44.483Z,98.00
2019-04-04T01:45:13.728Z,98.20
2019-04-04T01:47:42.304Z,98.40
2019-04-04T01:50:11.287Z,98.50
2019-04-04T01:52:39.714Z,98.70
2019-04-04T01:55:08.280Z,98.80
2019-04-04T01:57:38.533Z,98.30
2019-04-04T02:00:08.783Z,98.00
2019-04-04T02:02:37.226Z,98.00
2019-04-04T02:05:06.307Z,98.10
2019-04-04T02:07:34.789Z,98.10
2019-04-04T02:10:05.475Z,98.00
2019-04-04T02:12:33.854Z,97.80
2019-04-04T02:15:02.343Z,97.60
2019-04-04T02:17:30.756Z,97.60
2019-04-04T02:19:59.187Z,97.60
2019-04-04T02:22:30.732Z,97.40
2019-04-04T02:24:57.785Z,97.30
2019-04-04T02:27:26.221Z,97.10
2019-04-04T02:29:54.684Z,97.30
2019-04-04T02:32:26.872Z,97.20
2019-04-04T02:34:54.828Z,97.00
2019-04-04T02:37:23.248Z,97.10
2019-04-04T02:39:51.686Z,97.30
2019-04-04T02:42:22.201Z,97.40
2019-04-04T02:44:50.343Z,97.50
2019-04-04T02:47:18.817Z,97.70
2019-04-04T02:49:47.259Z,97.70
2019-04-04T02:52:15.692Z,98.00
2019-04-04T02:54:44.138Z,98.00
2019-04-04T02:57:12.536Z,97.70
2019-04-04T02:59:40.984Z,97.40
2019-04-04T03:02:09.393Z,97.30
2019-04-04T03:04:37.940Z,97.40
2019-04-04T03:07:06.497Z,97.70
2019-04-04T03:09:35.410Z,98.00
2019-04-04T03:12:03.905Z,98.10
2019-04-04T03:14:36.324Z,97.70
2019-04-04T03:17:15.706Z,97.80
2019-04-04T03:19:44.671Z,97.80
2019-04-04T03:22:13.321Z,98.00
2019-04-04T03:24:44.734Z,97.80
2019-04-04T03:27:11.983Z,97.70
2019-04-04T03:29:40.411Z,97.80
2019-04-04T03:32:13.243Z,97.70
2019-04-04T03:34:39.018Z,97.90
2019-04-04T03:37:11.982Z,97.60
2019-04-04T03:39:37.657Z,97.80
2019-04-04T03:42:08.122Z,97.80
2019-04-04T03:44:36.246Z,97.70
2019-04-04T03:47:04.736Z,97.80
2019-04-04T03:49:33.181Z,98.00
2019-04-04T03:52:01.624Z,97.90
2019-04-04T03:54:30.061Z,97.90
2019-04-04T03:56:58.490Z,98.10
2019-04-04T03:59:26.925Z,98.40
2019-04-04T04:01:55.359Z,97.90
2019-04-04T04:04:26.824Z,97.70
2019-04-04T04:06:53.936Z,97.30
2019-04-04T04:09:23.484Z,97.50
2019-04-04T04:11:52.508Z,97.10
2019-04-04T04:14:25.536Z,97.20
2019-04-04T04:16:53.972Z,97.20
2019-04-04T04:19:24.385Z,97.30
2019-04-04T04:21:52.583Z,97.60
2019-04-04T04:24:22.658Z,97.60
2019-04-04T04:26:51.080Z,97.50
2019-04-04T04:29:19.504Z,97.70
2019-04-04T04:31:49.605Z,97.60
2019-04-04T04:34:18.073Z,97.50
2019-04-04T04:36:48.055Z,97.30
2019-04-04T04:39:19.442Z,97.40
2019-04-04T04:41:47.870Z,97.50
2019-04-04T04:44:16.293Z,97.40
2019-04-04T04:46:44.738Z,97.40
2019-04-04T04:49:13.159Z,97.50
2019-04-04T04:51:44.150Z,97.60
2019-04-04T04:54:11.749Z,97.60
2019-04-04T04:56:40.232Z,97.70
2019-04-04T04:59:08.686Z,97.30
2019-04-04T05:01:37.126Z,97.30
2019-04-04T05:04:05.557Z,97.50
2019-04-04T05:06:35.725Z,97.50
2019-04-04T05:09:05.772Z,97.30
2019-04-04T05:11:34.217Z,97.40
2019-04-04T05:14:02.640Z,97.60
2019-04-04T05:16:31.076Z,97.50
2019-04-04T05:18:59.606Z,97.50
2019-04-04T05:21:28.932Z,97.80
2019-04-04T05:23:57.740Z,97.70
2019-04-04T05:26:26.140Z,97.90
2019-04-04T05:28:56.965Z,97.90
2019-04-04T05:31:24.730Z,98.10
2019-04-04T05:33:53.236Z,97.80
2019-04-04T05:36:21.697Z,97.80
2019-04-04T05:38:50.194Z,97.60
2019-04-04T05:41:20.164Z,97.80
2019-04-04T05:43:48.591Z,98.00
2019-04-04T05:46:19.015Z,97.70
2019-04-04T05:48:47.177Z,97.80
2019-04-04T05:51:21.671Z,97.80
2019-04-04T05:53:50.128Z,97.90
2019-04-04T05:56:18.554Z,97.80
2019-04-04T05:58:47.000Z,97.80
2019-04-04T06:01:19.754Z,97.70
2019-04-04T06:03:48.082Z,97.40
2019-04-04T06:06:18.270Z,97.90
2019-04-04T06:08:46.686Z,97.60
2019-04-04T06:11:15.118Z,97.60
2019-04-04T06:13:43.561Z,97.80
2019-04-04T06:16:12.000Z,98.00
2019-04-04T06:18:41.003Z,98.00
2019-04-04T06:21:10.645Z,97.80
2019-04-04T06:23:39.145Z,97.30
2019-04-04T06:26:10.538Z,97.50
2019-04-04T06:28:38.957Z,97.50
2019-04-04T06:31:08.931Z,97.60
2019-04-04T06:33:37.484Z,97.80
2019-04-04T06:36:05.920Z,97.80
2019-04-04T06:38:34.344Z,97.80
2019-04-04T06:41:02.946Z,97.70
2019-04-04T06:43:31.360Z,97.60
2019-04-04T06:45:59.776Z,97.90
2019-04-04T06:48:29.360Z,98.10
2019-04-04T06:50:58.424Z,98.50
2019-04-04T06:53:26.867Z,98.20
2019-04-04T06:55:55.298Z,97.90
2019-04-04T06:58:23.722Z,97.90
2019-04-04T07:00:52.183Z,98.00
2019-04-04T07:03:22.242Z,98.10
2019-04-04T07:05:50.679Z,97.50
2019-04-04T07:08:19.106Z,97.50
2019-04-04T07:10:57.316Z,98.10
2019-04-04T07:13:22.279Z,97.90
2019-04-04T07:16:03.458Z,97.90
2019-04-04T07:18:18.004Z,97.80
2019-04-04T07:20:48.288Z,98.00
2019-04-04T07:23:18.372Z,98.30
2019-04-04T07:25:46.813Z,98.20
2019-04-04T07:28:16.843Z,98.10
2019-04-04T07:30:46.939Z,98.60
2019-04-04T07:33:15.393Z,98.10
2019-04-04T07:35:43.818Z,98.40
2019-04-04T07:38:12.256Z,98.50
2019-04-04T07:40:40.664Z,98.40
2019-04-04T07:43:09.178Z,98.60
2019-04-04T07:45:37.591Z,98.60
2019-04-04T07:48:06.037Z,98.50
2019-04-04T07:50:34.463Z,98.70
2019-04-04T07:53:04.974Z,99.00
2019-04-04T07:55:33.165Z,99.10
2019-04-04T07:58:01.601Z,98.80
2019-04-04T08:00:30.136Z,98.70
2019-04-04T08:02:58.561Z,98.80
2019-04-04T08:05:31.545Z,99.10
2019-04-04T08:08:00.341Z,98.80
2019-04-04T08:10:30.469Z,98.70
2019-04-04T08:12:58.899Z,99.00
2019-04-04T08:15:27.465Z,98.80
2019-04-04T08:17:55.885Z,99.00
2019-04-04T08:20:24.315Z,98.80
2019-04-04T08:22:52.742Z,98.80
2019-04-04T08:25:21.178Z,98.70
2019-04-04T08:27:49.603Z,98.80
2019-04-04T08:30:20.994Z,98.60
2019-04-04T08:32:49.409Z,98.80
2019-04-04T08:35:17.842Z,98.70
2019-04-04T08:37:46.270Z,98.70
2019-04-04T08:40:14.773Z,98.40
2019-04-04T08:42:43.177Z,98.50
2019-04-04T08:45:11.983Z,98.20
2019-04-04T08:47:40.393Z,98.30
2019-04-04T08:50:08.977Z,98.10
2019-04-04T08:52:37.409Z,98.00
2019-04-04T08:55:07.009Z,98.40
2019-04-04T08:57:35.460Z,98.40
2019-04-04T09:00:07.962Z,98.40
2019-04-04T09:02:36.372Z,98.30
2019-04-04T09:05:12.165Z,98.60
2019-04-04T09:07:36.776Z,98.20
2019-04-04T09:10:07.473Z,98.00
2019-04-04T09:12:35.902Z,97.70
2019-04-04T09:15:06.665Z,97.70
2019-04-04T09:17:35.092Z,98.50
2019-04-04T09:20:09.970Z,98.30
2019-04-04T09:22:40.807Z,98.60
2019-04-04T09:25:10.631Z,98.00
2019-04-04T09:27:39.309Z,98.40
2019-04-04T09:30:09.537Z,98.50
2019-04-04T09:32:37.992Z,97.90
2019-04-04T09:35:07.548Z,97.80
2019-04-04T09:37:35.965Z,98.00
2019-04-04T09:40:06.736Z,98.10
2019-04-04T09:42:35.178Z,98.20
2019-04-04T09:45:05.517Z,97.20
2019-04-04T09:47:33.952Z,97.20
2019-04-04T09:50:02.438Z,97.20
2019-04-04T09:52:30.877Z,97.20
2019-04-04T09:54:59.300Z,97.10
2019-04-04T09:57:27.733Z,97.50
2019-04-04T09:59:56.153Z,97.20
2019-04-04T10:02:24.637Z,97.70
2019-04-04T10:04:53.044Z,97.60
2019-04-04T10:07:21.488Z,97.90
2019-04-04T10:09:49.972Z,98.10
2019-04-04T10:12:18.399Z,97.80
2019-04-04T10:14:46.816Z,97.70
2019-04-04T10:17:15.259Z,98.10
2019-04-04T10:19:43.681Z,97.90
2019-04-04T10:22:12.085Z,97.70
2019-04-04T10:24:40.528Z,97.20
2019-04-04T10:27:08.942Z,97.40
2019-04-04T10:29:37.378Z,97.10
2019-04-04T10:32:05.862Z,97.70
2019-04-04T10:34:34.289Z,97.10
2019-04-04T10:37:02.785Z,97.20
2019-04-04T10:39:32.759Z,97.90
2019-04-04T10:42:01.491Z,97.50
2019-04-04T10:44:29.951Z,97.60
2019-04-04T10:46:58.352Z,97.10
2019-04-04T10:49:26.782Z,97.70
2019-04-04T10:51:55.261Z,97.40
2019-04-04T10:54:23.785Z,96.80
2019-04-04T10:56:52.188Z,97.70
2019-04-04T10:59:20.632Z,97.70
2019-04-04T11:01:49.117Z,97.90
2019-04-04T11:04:17.540Z,97.70
2019-04-04T11:06:46.334Z,97.60
2019-04-04T11:09:14.798Z,97.00
2019-04-04T11:11:43.207Z,97.20
2019-04-04T11:14:11.628Z,96.80
2019-04-04T11:16:40.047Z,97.10
2019-04-04T11:19:09.801Z,96.10
2019-04-04T11:21:38.340Z,97.10
2019-04-04T11:24:06.768Z,97.00
2019-04-04T11:26:35.248Z,97.30
2019-04-04T11:29:03.704Z,97.20
2019-04-04T11:31:32.105Z,98.00
2019-04-04T11:34:00.551Z,97.90
2019-04-04T11:36:28.985Z,97.20
2019-04-04T11:38:57.406Z,97.30
2019-04-04T11:41:25.863Z,98.00
2019-04-04T11:43:54.268Z,97.70
2019-04-04T11:46:22.692Z,97.10
2019-04-04T11:48:51.116Z,97.50
2019-04-04T11:51:19.561Z,97.40
2019-04-04T11:53:47.986Z,97.30
2019-04-04T11:56:16.408Z,97.40
2019-04-04T11:58:44.832Z,97.70
2019-04-04T12:01:14.913Z,98.20
2019-04-04T12:03:43.324Z,97.80
2019-04-04T12:06:11.795Z,97.00
2019-04-04T12:08:40.194Z,96.70
2019-04-04T12:11:08.718Z,97.30
2019-04-04T12:13:37.168Z,97.50
2019-04-04T12:16:05.741Z,98.00
2019-04-04T12:18:34.144Z,97.20
2019-04-04T12:21:02.577Z,96.80
2019-04-04T12:23:30.994Z,97.90
2019-04-04T12:26:03.646Z,97.60
2019-04-04T12:28:32.048Z,97.40
2019-04-04T12:31:00.484Z,97.20
2019-04-04T12:33:28.897Z,96.80
2019-04-04T12:35:57.339Z,96.80
2019-04-04T12:38:25.768Z,97.60
2019-04-04T12:40:54.214Z,97.70
2019-04-04T12:43:22.637Z,97.90
2019-04-04T12:45:51.066Z,98.20
2019-04-04T12:48:19.486Z,97.70
2019-04-04T12:50:48.568Z,98.20
2019-04-04T12:53:17.109Z,98.00
2019-04-04T12:55:45.529Z,97.90
2019-04-04T12:58:13.968Z,97.70
2019-04-04T13:00:42.374Z,97.90
2019-04-04T13:03:10.823Z,97.80
2019-04-04T13:05:39.506Z,97.80
2019-04-04T13:08:07.996Z,98.10
2019-04-04T13:10:36.490Z,98.10
2019-04-04T13:13:04.922Z,98.40
2019-04-04T13:15:33.335Z,96.80
2019-04-04T13:18:01.865Z,96.70
2019-04-04T13:20:30.413Z,96.70
2019-04-04T13:22:58.864Z,97.00
2019-04-04T13:25:27.350Z,97.50
2019-04-04T13:27:55.762Z,96.90
2019-04-04T13:30:24.247Z,96.00
2019-04-04T13:32:52.666Z,96.10
2019-04-04T13:35:21.072Z,97.00
2019-04-04T13:37:49.530Z,95.50
2019-04-04T13:40:19.068Z,96.30
2019-04-04T13:42:47.601Z,96.20
2019-04-04T13:45:16.169Z,95.70
2019-04-04T13:47:45.276Z,96.40
2019-04-04T13:50:14.053Z,95.90
2019-04-04T13:52:42.471Z,96.90
2019-04-04T13:55:10.974Z,96.40
2019-04-04T13:57:39.643Z,95.10
2019-04-04T14:00:09.409Z,95.70
2019-04-04T14:02:37.910Z,95.90
2019-04-04T14:05:11.494Z,96.20
2019-04-04T14:07:38.675Z,97.00
2019-04-04T14:10:07.671Z,96.30
2019-04-04T14:12:37.838Z,96.20
2019-04-04T14:15:10.700Z,96.20
2019-04-04T14:17:39.121Z,95.90
2019-04-04T14:20:09.005Z,96.40
2019-04-04T14:22:39.057Z,96.40
2019-04-04T14:25:13.366Z,96.10
2019-04-04T14:27:41.776Z,95.80
2019-04-04T14:30:11.049Z,96.80
2019-04-04T14:32:39.453Z,96.30
2019-04-04T14:35:08.872Z,96.20
2019-04-04T14:37:37.305Z,96.50
2019-04-04T14:40:09.424Z,96.60
2019-04-04T14:42:37.829Z,95.70
2019-04-04T14:45:10.421Z,96.00
2019-04-04T14:47:40.231Z,95.50
2019-04-04T14:50:08.841Z,96.10
2019-04-04T14:52:39.423Z,96.10
2019-04-04T14:55:07.564Z,95.80
2019-04-04T14:57:36.006Z,96.00
2019-04-04T15:00:08.301Z,94.70
2019-04-04T15:02:36.754Z,94.80
2019-04-04T15:05:06.250Z,94.10
2019-04-04T15:07:34.680Z,94.80
2019-04-04T15:10:03.437Z,95.10
2019-04-04T15:12:31.865Z,95.50
2019-04-04T15:15:01.929Z,95.10
2019-04-04T15:17:31.905Z,96.10
2019-04-04T15:20:00.328Z,95.40
2019-04-04T15:22:31.655Z,95.30
2019-04-04T15:24:58.909Z,94.50
2019-04-04T15:27:27.343Z,94.80
2019-04-04T15:29:55.767Z,95.50
2019-04-04T15:32:24.219Z,95.80
2019-04-04T15:34:54.358Z,96.00
2019-04-04T15:37:22.893Z,96.20
2019-04-04T15:39:52.849Z,95.30
2019-04-04T15:42:23.549Z,96.50
2019-04-04T15:44:51.424Z,95.80
2019-04-04T15:47:19.876Z,96.00
2019-04-04T15:49:48.327Z,96.40
2019-04-04T15:52:16.797Z,95.80
2019-04-04T15:54:45.301Z,96.10
2019-04-04T15:57:13.728Z,96.00
2019-04-04T15:59:42.168Z,95.90
2019-04-04T16:02:13.360Z,95.80
2019-04-04T16:04:41.814Z,95.50
2019-04-04T16:07:10.471Z,96.30
2019-04-04T16:09:38.994Z,95.70
2019-04-04T16:12:07.408Z,96.00
2019-04-04T16:14:35.857Z,96.10
2019-04-04T16:17:04.344Z,95.60
2019-04-04T16:19:32.802Z,95.80
2019-04-04T16:22:01.216Z,96.40
2019-04-04T16:24:29.655Z,95.70
2019-04-04T16:26:58.053Z,96.20
2019-04-04T16:29:26.489Z,96.10
2019-04-04T16:31:54.893Z,96.20
2019-04-04T16:34:23.341Z,95.90
2019-04-04T16:36:51.771Z,95.40
2019-04-04T16:39:20.205Z,95.20
2019-04-04T16:42:01.279Z,95.60
2019-04-04T16:44:21.764Z,96.00
2019-04-04T16:46:50.184Z,96.20
2019-04-04T16:49:18.647Z,95.40
2019-04-04T16:51:47.048Z,95.80
2019-04-04T16:54:15.492Z,95.20
2019-04-04T16:56:43.925Z,95.80
2019-04-04T16:59:12.429Z,96.30
2019-04-04T17:01:40.845Z,96.20
2019-04-04T17:04:09.276Z,96.10
2019-04-04T17:06:37.717Z,96.40
2019-04-04T17:09:07.665Z,96.20
2019-04-04T17:11:36.167Z,95.90
2019-04-04T17:14:04.731Z,96.30
2019-04-04T17:16:36.169Z,96.10
2019-04-04T17:19:06.284Z,96.40
2019-04-04T17:21:37.787Z,96.70
2019-04-04T17:24:06.549Z,96.40
2019-04-04T17:26:34.973Z,96.60
2019-04-04T17:29:03.562Z,96.70
2019-04-04T17:31:31.991Z,96.70
2019-04-04T17:34:00.866Z,96.40
2019-04-04T17:36:31.610Z,96.50
2019-04-04T17:39:00.974Z,96.70
2019-04-04T17:41:29.889Z,96.70
2019-04-04T17:43:58.887Z,96.60
2019-04-04T17:46:27.480Z,96.80
2019-04-04T17:48:56.393Z,96.80
2019-04-04T17:51:25.080Z,96.70
2019-04-04T17:53:55.535Z,96.20
2019-04-04T17:56:24.229Z,96.60
2019-04-04T17:58:52.632Z,96.10
2019-04-04T18:01:21.098Z,96.40
2019-04-04T18:03:51.733Z,96.30
2019-04-04T18:06:19.926Z,96.00
2019-04-04T18:08:51.666Z,95.90
2019-04-04T18:11:20.080Z,96.20
2019-04-04T18:13:48.520Z,96.50
2019-04-04T18:16:16.998Z,96.10
2019-04-04T18:18:45.445Z,96.30
2019-04-04T18:21:15.503Z,96.40
2019-04-04T18:23:43.941Z,96.60
2019-04-04T18:26:12.345Z,96.00
2019-04-04T18:28:43.363Z,96.40
2019-04-04T18:31:11.817Z,96.30
2019-04-04T18:33:42.622Z,96.30
2019-04-04T18:36:12.904Z,95.80
2019-04-04T18:38:43.766Z,96.10
2019-04-04T18:41:11.652Z,95.90
2019-04-04T18:43:40.118Z,95.80
2019-04-04T18:46:10.939Z,96.40
2019-04-04T18:48:39.404Z,95.90
2019-04-04T18:51:07.893Z,96.40
2019-04-04T18:53:36.415Z,96.20
2019-04-04T18:56:05.249Z,96.00
2019-04-04T18:58:33.699Z,95.80
2019-04-04T19:01:02.112Z,95.90
2019-04-04T19:03:30.553Z,96.10
2019-04-04T19:06:06.292Z,95.70
2019-04-04T19:08:34.818Z,96.20
2019-04-04T19:11:08.156Z,96.30
2019-04-04T19:13:44.126Z,96.20
2019-04-04T19:16:09.931Z,95.80
2019-04-04T19:18:41.477Z,95.50
2019-04-04T19:21:10.053Z,95.70
2019-04-04T19:23:49.162Z,95.60
2019-04-04T19:26:11.471Z,95.70
2019-04-04T19:28:42.690Z,95.90
2019-04-04T19:31:14.036Z,95.70
2019-04-04T19:33:42.444Z,95.70
2019-04-04T19:36:13.389Z,95.90
2019-04-04T19:38:44.242Z,96.30
2019-04-04T19:41:12.761Z,96.60
2019-04-04T19:43:41.204Z,96.80
2019-04-04T19:46:11.231Z,96.70
2019-04-04T19:48:40.677Z,96.70
2019-04-04T19:51:10.699Z,96.90
2019-04-04T19:53:44.740Z,96.90
2019-04-04T19:56:13.212Z,97.10
2019-04-04T19:58:41.628Z,96.90
2019-04-04T20:01:10.305Z,96.90
2019-04-04T20:03:40.412Z,96.80
2019-04-04T20:06:11.593Z,96.70
2019-04-04T20:08:40.042Z,96.60
2019-04-04T20:11:17.650Z,96.50
2019-04-04T20:13:46.073Z,96.60
2019-04-04T20:16:14.517Z,96.70
2019-04-04T20:18:45.407Z,96.70
2019-04-04T20:21:15.410Z,96.40
2019-04-04T20:23:46.779Z,96.50
2019-04-04T20:26:17.978Z,96.40
2019-04-04T20:28:46.568Z,96.20
2019-04-04T20:31:15.075Z,96.30
2019-04-04T20:33:43.534Z,96.10
2019-04-04T20:36:14.868Z,95.80
2019-04-04T20:38:44.934Z,95.60
2019-04-04T20:41:16.263Z,95.70
2019-04-04T20:43:43.830Z,95.50
2019-04-04T20:46:12.342Z,95.60
2019-04-04T20:48:43.890Z,95.40
2019-04-04T20:51:12.314Z,95.30
2019-04-04T20:53:40.761Z,95.50
2019-04-04T20:56:09.229Z,95.40
2019-04-04T20:58:40.484Z,95.90
2019-04-04T21:01:10.543Z,95.80
2019-04-04T21:03:39.054Z,95.90
2019-04-04T21:06:07.524Z,95.90
2019-04-04T21:08:36.831Z,96.10
2019-04-04T21:11:06.989Z,96.40
2019-04-04T21:13:35.473Z,96.50
2019-04-04T21:16:03.957Z,96.90
2019-04-04T21:18:32.393Z,96.20
2019-04-04T21:21:02.560Z,96.60
2019-04-04T21:23:35.080Z,96.90
2019-04-04T21:26:06.364Z,97.00
2019-04-04T21:28:34.892Z,97.10
2019-04-04T21:31:07.177Z,97.10
2019-04-04T21:33:35.633Z,97.40
2019-04-04T21:36:04.058Z,97.70
2019-04-04T21:38:37.033Z,98.30
2019-04-04T21:41:05.432Z,98.60
2019-04-04T21:43:33.872Z,99.00
2019-04-04T21:46:03.941Z,98.80
2019-04-04T21:48:35.448Z,98.60
2019-04-04T21:51:03.898Z,98.90
2019-04-04T21:53:32.326Z,98.80
2019-04-04T21:56:00.781Z,99.10
2019-04-04T21:58:31.500Z,98.50
2019-04-04T22:01:00.073Z,98.20
2019-04-04T22:03:28.554Z,98.10
2019-04-04T22:05:57.061Z,97.90
2019-04-04T22:08:27.034Z,97.40
2019-04-04T22:10:57.119Z,97.60
2019-04-04T22:13:28.353Z,97.60
2019-04-04T22:15:56.783Z,97.20
2019-04-04T22:18:25.276Z,97.00
2019-04-04T22:20:56.522Z,96.80
2019-04-04T22:23:24.954Z,96.60
2019-04-04T22:25:58.046Z,97.00
2019-04-04T22:28:29.686Z,97.20
2019-04-04T22:31:00.869Z,97.40
2019-04-04T22:33:30.317Z,97.70
2019-04-04T22:35:58.795Z,97.90
2019-04-04T22:38:27.228Z,98.00
2019-04-04T22:40:55.661Z,98.30
2019-04-04T22:43:24.087Z,98.50
2019-04-04T22:45:54.183Z,98.70
2019-04-04T22:48:22.619Z,98.80
2019-04-04T22:50:51.018Z,99.10
2019-04-04T22:53:19.454Z,99.30
2019-04-04T22:55:52.338Z,99.60
2019-04-04T22:58:28.269Z,99.70
2019-04-04T23:00:52.513Z,99.90
2019-04-04T23:03:24.287Z,99.90
2019-04-04T23:05:52.743Z,99.60
2019-04-04T23:08:21.192Z,99.60
2019-04-04T23:10:49.629Z,99.70
2019-04-04T23:13:18.057Z,99.10
2019-04-04T23:15:46.471Z,98.90
2019-04-04T23:18:14.911Z,99.10
2019-04-04T23:20:45.995Z,99.20
2019-04-04T23:23:14.588Z,99.30
2019-04-04T23:25:43.011Z,99.30
2019-04-04T23:28:23.037Z,99.30
2019-04-04T23:30:51.472Z,99.40
2019-04-04T23:33:21.429Z,99.30
2019-04-04T23:35:50.019Z,99.20
2019-04-04T23:38:20.091Z,99.30
2019-04-04T23:40:51.344Z,99.20
2019-04-04T23:43:20.287Z,99.30
2019-04-04T23:45:48.689Z,99.30
2019-04-04T23:48:17.156Z,99.20
2019-04-04T23:50:45.628Z,99.00
2019-04-04T23:53:16.070Z,98.60
2019-04-04T23:55:44.242Z,98.40
2019-04-04T23:58:12.679Z,98.20
